createdAt,value
2019-05-12T00:01:55.795Z,92.80
2019-05-12T00:04:19.255Z,92.50
2019-05-12T00:06:48.126Z,92.30
2019-05-12T00:09:18.779Z,92.20
2019-05-12T00:11:48.464Z,92.20
2019-05-12T00:14:18.208Z,92.20
2019-05-12T00:16:49.108Z,92.40
2019-05-12T00:19:18.135Z,92.40
2019-05-12T00:21:48.324Z,92.20
2019-05-12T00:24:18.691Z,92.60
2019-05-12T00:26:47.878Z,92.40
2019-05-12T00:29:18.498Z,92.30
2019-05-12T00:31:47.822Z,92.10
2019-05-12T00:34:18.369Z,91.70
2019-05-12T00:36:48.486Z,91.60
2019-05-12T00:39:19.083Z,91.30
2019-05-12T00:41:48.331Z,91.40
2019-05-12T00:44:18.399Z,91.70
2019-05-12T00:46:48.764Z,91.70
2019-05-12T00:49:18.620Z,91.80
2019-05-12T00:51:48.549Z,91.70
2019-05-12T00:54:17.907Z,91.70
2019-05-12T00:56:48.156Z,91.70
2019-05-12T00:59:19.053Z,91.80
2019-05-12T01:01:48.244Z,92.00
2019-05-12T01:04:17.648Z,91.90
2019-05-12T01:06:48.618Z,91.50
2019-05-12T01:09:17.696Z,90.90
2019-05-12T01:11:48.108Z,90.80
2019-05-12T01:14:18.648Z,90.60
2019-05-12T01:16:48.625Z,90.70
2019-05-12T01:19:18.573Z,90.60
2019-05-12T01:21:48.134Z,90.70
2019-05-12T01:24:18.735Z,90.90
2019-05-12T01:26:47.775Z,90.90
2019-05-12T01:29:17.659Z,90.90
2019-05-12T01:31:48.655Z,90.80
2019-05-12T01:34:18.218Z,90.80
2019-05-12T01:36:48.321Z,90.80
2019-05-12T01:39:18.756Z,90.60
2019-05-12T01:41:48.176Z,90.50
2019-05-12T01:44:18.351Z,90.40
2019-05-12T01:46:48.353Z,90.40
2019-05-12T01:49:18.727Z,90.50
2019-05-12T01:51:48.087Z,90.50
2019-05-12T01:54:18.868Z,90.50
2019-05-12T01:56:48.333Z,90.50
2019-05-12T01:59:18.499Z,90.50
2019-05-12T02:01:48.799Z,90.60
2019-05-12T02:04:18.210Z,90.60
2019-05-12T02:06:48.541Z,90.60
2019-05-12T02:09:19.254Z,90.60
2019-05-12T02:11:48.346Z,91.10
2019-05-12T02:14:18.251Z,90.70
2019-05-12T02:16:48.255Z,90.70
2019-05-12T02:19:17.815Z,90.70
2019-05-12T02:21:48.709Z,90.60
2019-05-12T02:24:26.615Z,90.50
2019-05-12T02:26:48.674Z,90.40
2019-05-12T02:29:18.274Z,90.30
2019-05-12T02:31:50.059Z,90.30
2019-05-12T02:34:18.028Z,90.30
2019-05-12T02:36:46.817Z,90.20
2019-05-12T02:39:15.819Z,90.20
2019-05-12T02:41:45.029Z,90.10
2019-05-12T02:44:14.938Z,90.10
2019-05-12T02:46:44.799Z,90.20
2019-05-12T02:49:15.722Z,90.30
2019-05-12T02:51:45.526Z,90.30
2019-05-12T02:54:15.377Z,90.40
2019-05-12T02:56:45.958Z,90.40
2019-05-12T02:59:16.624Z,90.30
2019-05-12T03:01:49.919Z,90.30
2019-05-12T03:04:20.000Z,90.20
2019-05-12T03:06:50.527Z,90.20
2019-05-12T03:09:19.439Z,90.30
2019-05-12T03:11:49.665Z,90.30
2019-05-12T03:14:18.454Z,90.20
2019-05-12T03:16:47.354Z,90.10
2019-05-12T03:19:16.450Z,90.00
2019-05-12T03:21:45.327Z,89.60
2019-05-12T03:24:17.424Z,89.60
2019-05-12T03:26:45.121Z,89.40
2019-05-12T03:29:14.987Z,89.40
2019-05-12T03:31:48.418Z,89.40
2019-05-12T03:34:19.453Z,89.10
2019-05-12T03:36:50.639Z,89.00
2019-05-12T03:39:15.699Z,88.70
2019-05-12T03:41:44.825Z,88.30
2019-05-12T03:44:15.132Z,88.00
2019-05-12T03:46:45.669Z,88.00
2019-05-12T03:49:15.573Z,87.90
2019-05-12T03:51:45.723Z,87.50
2019-05-12T03:54:16.461Z,87.30
2019-05-12T03:56:45.431Z,86.70
2019-05-12T03:59:15.201Z,86.20
2019-05-12T04:01:45.155Z,85.90
2019-05-12T04:04:15.244Z,85.40
2019-05-12T04:06:45.459Z,85.10
2019-05-12T04:09:15.373Z,85.10
2019-05-12T04:11:44.729Z,84.70
2019-05-12T04:14:14.788Z,84.10
2019-05-12T04:16:45.131Z,83.40
2019-05-12T04:19:14.893Z,82.90
2019-05-12T04:21:44.772Z,82.90
2019-05-12T04:24:14.450Z,82.70
2019-05-12T04:26:44.845Z,82.30
2019-05-12T04:29:15.446Z,81.90
2019-05-12T04:31:44.492Z,81.40
2019-05-12T04:34:15.702Z,80.80
2019-05-12T04:36:44.907Z,81.10
2019-05-12T04:39:14.891Z,80.20
2019-05-12T04:41:44.677Z,79.70
2019-05-12T04:44:15.145Z,80.30
2019-05-12T04:46:45.220Z,80.00
2019-05-12T04:49:15.762Z,78.90
2019-05-12T04:51:45.202Z,78.20
2019-05-12T04:54:15.390Z,77.90
2019-05-12T04:56:44.801Z,77.30
2019-05-12T04:59:15.714Z,77.30
2019-05-12T05:01:45.527Z,76.90
2019-05-12T05:04:15.440Z,76.20
2019-05-12T05:06:45.058Z,75.10
2019-05-12T05:09:14.590Z,73.90
2019-05-12T05:11:45.091Z,71.50
2019-05-12T05:14:14.603Z,68.60
2019-05-12T05:16:45.125Z,68.20
2019-05-12T05:19:14.373Z,66.30
2019-05-12T05:21:43.795Z,65.90
2019-05-12T05:24:14.214Z,63.10
2019-05-12T05:26:43.664Z,61.50
2019-05-12T05:29:13.516Z,60.30
2019-05-12T05:31:44.212Z,59.20
2019-05-12T05:34:14.852Z,58.60
2019-05-12T05:36:43.989Z,56.70
2019-05-12T05:39:13.834Z,53.60
2019-05-12T05:41:46.437Z,50.90
2019-05-12T05:44:13.963Z,50.00
2019-05-12T05:46:48.205Z,50.00
2019-05-12T05:49:13.456Z,49.80
2019-05-12T05:51:48.262Z,48.80
2019-05-12T05:54:13.771Z,46.20
2019-05-12T05:56:56.936Z,41.30
2019-05-12T05:59:15.087Z,39.70
2019-05-12T06:01:46.984Z,40.00
2019-05-12T06:04:14.426Z,41.50
2019-05-12T06:06:50.801Z,41.00
2019-05-12T06:09:14.191Z,40.70
2019-05-12T06:11:43.729Z,41.40
2019-05-12T06:14:14.093Z,40.90
2019-05-12T06:16:43.417Z,40.40
2019-05-12T06:19:14.085Z,39.50
2019-05-12T06:21:44.013Z,40.20
2019-05-12T06:24:15.738Z,41.30
2019-05-12T06:26:57.093Z,41.70
2019-05-12T06:29:20.078Z,41.60
2019-05-12T06:31:44.951Z,40.90
2019-05-12T06:34:18.980Z,40.40
2019-05-12T06:36:44.377Z,40.00
2019-05-12T06:39:16.442Z,38.10
2019-05-12T06:41:44.464Z,36.50
2019-05-12T06:44:17.182Z,34.80
2019-05-12T06:46:44.289Z,35.00
2019-05-12T06:49:17.470Z,35.90
2019-05-12T06:51:44.446Z,35.70
2019-05-12T06:54:15.142Z,36.80
2019-05-12T06:56:44.326Z,34.70
2019-05-12T06:59:14.837Z,32.40
2019-05-12T07:01:44.946Z,31.00
2019-05-12T07:04:14.261Z,30.40
2019-05-12T07:06:44.176Z,31.40
2019-05-12T07:09:16.335Z,30.20
2019-05-12T07:11:52.861Z,29.30
2019-05-12T07:14:22.431Z,27.90
2019-05-12T07:16:46.555Z,27.50
2019-05-12T07:19:21.043Z,26.80
2019-05-12T07:26:12.500Z,24.40
2019-05-12T07:32:21.550Z,23.90
2019-05-12T07:34:46.174Z,23.60
2019-05-12T07:37:15.535Z,23.00
2019-05-12T07:39:49.297Z,23.20
2019-05-12T07:42:16.611Z,23.60
2019-05-12T07:44:46.242Z,23.50
2019-05-12T07:47:19.314Z,23.00
2019-05-12T07:49:45.568Z,22.80
2019-05-12T07:52:14.462Z,22.70
2019-05-12T07:54:44.424Z,23.10
2019-05-12T07:57:17.452Z,24.00
2019-05-12T07:59:44.426Z,24.10
2019-05-12T08:02:14.267Z,23.10
2019-05-12T08:04:43.992Z,22.30
2019-05-12T08:07:14.488Z,22.50
2019-05-12T08:09:43.588Z,21.80
2019-05-12T08:12:16.384Z,21.50
2019-05-12T08:14:43.958Z,21.00
2019-05-12T08:17:16.861Z,22.10
2019-05-12T08:19:44.349Z,22.20
2019-05-12T08:22:13.648Z,21.90
2019-05-12T08:24:45.841Z,22.40
2019-05-12T08:27:14.394Z,22.50
2019-05-12T08:29:43.360Z,24.50
2019-05-12T08:32:18.014Z,26.70
2019-05-12T08:34:44.508Z,26.90
2019-05-12T08:37:13.999Z,26.00
2019-05-12T08:39:44.300Z,24.90
2019-05-12T08:42:14.525Z,25.00
2019-05-12T08:44:43.949Z,25.10
2019-05-12T08:47:15.233Z,24.80
2019-05-12T08:49:52.986Z,24.80
2019-05-12T08:52:14.347Z,25.60
2019-05-12T08:54:45.482Z,26.90
2019-05-12T08:57:14.332Z,28.10
2019-05-12T08:59:44.132Z,29.20
2019-05-12T09:02:13.933Z,30.00
2019-05-12T09:04:51.116Z,30.80
2019-05-12T09:07:13.918Z,31.40
2019-05-12T09:09:43.961Z,32.00
2019-05-12T09:12:14.050Z,32.70
2019-05-12T09:14:46.121Z,33.40
2019-05-12T09:17:13.906Z,33.40
2019-05-12T09:19:43.631Z,33.30
2019-05-12T09:22:16.663Z,34.20
2019-05-12T09:24:44.087Z,34.90
2019-05-12T09:27:13.580Z,35.10
2019-05-12T09:29:43.582Z,35.00
2019-05-12T09:32:14.511Z,35.00
2019-05-12T09:34:44.671Z,35.30
2019-05-12T09:37:14.234Z,35.40
2019-05-12T09:39:47.364Z,36.60
2019-05-12T09:42:14.253Z,36.80
2019-05-12T09:44:43.926Z,36.40
2019-05-12T09:47:22.499Z,37.30
2019-05-12T09:49:44.419Z,39.20
2019-05-12T09:52:21.957Z,40.30
2019-05-12T09:54:44.391Z,41.00
2019-05-12T09:57:13.754Z,42.20
2019-05-12T09:59:45.822Z,43.20
2019-05-12T10:02:18.523Z,43.70
2019-05-12T10:04:44.334Z,44.00
2019-05-12T10:07:14.078Z,44.50
2019-05-12T10:09:44.170Z,44.80
2019-05-12T10:12:13.590Z,44.90
2019-05-12T10:14:45.948Z,45.10
2019-05-12T10:17:14.199Z,45.40
2019-05-12T10:19:43.448Z,46.70
2019-05-12T10:22:12.637Z,47.40
2019-05-12T10:24:52.099Z,47.80
2019-05-12T10:27:13.781Z,48.80
2019-05-12T10:29:43.733Z,49.20
2019-05-12T10:32:13.378Z,49.50
2019-05-12T10:34:44.207Z,50.10
2019-05-12T10:37:13.369Z,50.30
2019-05-12T10:39:42.247Z,50.00
2019-05-12T10:42:13.611Z,50.20
2019-05-12T10:44:43.717Z,50.60
2019-05-12T10:47:13.493Z,50.80
2019-05-12T10:50:02.094Z,50.90
2019-05-12T10:52:34.994Z,50.60
2019-05-12T10:58:29.967Z,50.30
2019-05-12T11:01:03.718Z,50.60
2019-05-12T11:03:29.194Z,51.10
2019-05-12T11:06:02.695Z,51.30
2019-05-12T11:08:28.933Z,50.80
2019-05-12T11:11:01.173Z,51.30
2019-05-12T11:13:28.250Z,51.80
2019-05-12T11:15:58.306Z,51.90
2019-05-12T11:18:30.430Z,52.30
2019-05-12T11:20:57.799Z,53.00
2019-05-12T11:23:26.710Z,53.30
2019-05-12T11:25:55.487Z,53.40
2019-05-12T11:28:24.591Z,52.90
2019-05-12T11:30:53.690Z,52.70
2019-05-12T11:33:23.809Z,52.80
2019-05-12T11:35:54.122Z,52.80
2019-05-12T11:38:24.479Z,53.00
2019-05-12T11:40:53.842Z,53.50
2019-05-12T11:43:24.763Z,53.90
2019-05-12T11:45:53.617Z,53.60
2019-05-12T11:48:23.638Z,52.90
2019-05-12T11:50:54.489Z,52.10
2019-05-12T11:53:30.509Z,51.60
2019-05-12T11:55:54.331Z,51.60
2019-05-12T11:58:23.567Z,51.90
2019-05-12T12:00:58.607Z,51.90
2019-05-12T12:03:24.739Z,51.70
2019-05-12T12:05:53.974Z,51.50
2019-05-12T12:08:26.328Z,51.90
2019-05-12T12:10:54.181Z,52.00
2019-05-12T12:13:25.738Z,52.40
2019-05-12T12:15:53.934Z,52.70
2019-05-12T12:18:23.595Z,53.40
2019-05-12T12:20:56.653Z,53.40
2019-05-12T12:23:23.190Z,53.60
2019-05-12T12:25:53.493Z,53.60
2019-05-12T12:28:24.213Z,54.00
2019-05-12T12:30:56.820Z,54.20
2019-05-12T12:33:23.597Z,53.80
2019-05-12T12:35:56.628Z,53.70
2019-05-12T12:38:22.805Z,53.10
2019-05-12T12:40:53.544Z,53.50
2019-05-12T12:43:22.230Z,52.50
2019-05-12T12:45:52.766Z,52.50
2019-05-12T12:48:25.482Z,52.60
2019-05-12T12:50:53.424Z,52.70
2019-05-12T12:53:23.815Z,53.10
2019-05-12T12:55:53.736Z,53.00
2019-05-12T12:58:27.024Z,53.40
2019-05-12T13:00:56.314Z,52.70
2019-05-12T13:03:25.743Z,52.60
2019-05-12T13:09:38.292Z,53.00
2019-05-12T13:12:14.185Z,53.10
2019-05-12T13:14:38.436Z,53.70
2019-05-12T13:17:07.515Z,53.60
2019-05-12T13:19:36.509Z,53.80
2019-05-12T13:22:09.118Z,54.00
2019-05-12T13:24:35.934Z,54.40
2019-05-12T13:27:04.932Z,54.90
2019-05-12T13:29:35.415Z,55.40
2019-05-12T13:32:04.479Z,55.40
2019-05-12T13:34:36.612Z,55.60
2019-05-12T13:37:03.883Z,56.00
2019-05-12T13:39:33.511Z,56.50
2019-05-12T13:42:03.214Z,57.00
2019-05-12T13:44:36.389Z,57.40
2019-05-12T13:47:03.400Z,57.70
2019-05-12T13:49:38.480Z,58.00
2019-05-12T13:52:04.208Z,58.20
2019-05-12T14:01:17.130Z,58.40
2019-05-12T14:03:40.061Z,58.60
2019-05-12T14:06:09.892Z,58.90
2019-05-12T14:08:38.787Z,59.00
2019-05-12T14:11:07.684Z,59.10
2019-05-12T14:13:36.682Z,59.40
2019-05-12T14:16:06.833Z,59.50
2019-05-12T14:18:36.310Z,59.50
2019-05-12T14:21:05.623Z,59.30
2019-05-12T14:23:34.515Z,59.20
2019-05-12T14:26:07.736Z,59.10
2019-05-12T14:28:33.951Z,58.90
2019-05-12T14:31:02.813Z,59.00
2019-05-12T14:33:35.947Z,59.30
2019-05-12T14:36:04.057Z,59.20
2019-05-12T14:38:33.807Z,59.30
2019-05-12T14:41:09.619Z,58.90
2019-05-12T14:43:34.062Z,58.80
2019-05-12T14:46:06.226Z,58.20
2019-05-12T14:48:33.798Z,57.90
2019-05-12T14:51:03.486Z,57.50
2019-05-12T14:53:32.877Z,57.20
2019-05-12T14:56:03.898Z,56.70
2019-05-12T15:02:14.419Z,55.60
2019-05-12T15:04:44.935Z,54.50
2019-05-12T15:07:15.277Z,54.10
2019-05-12T15:09:44.262Z,53.60
2019-05-12T15:12:14.022Z,53.90
2019-05-12T15:14:43.806Z,53.90
2019-05-12T15:20:55.574Z,53.40
2019-05-12T15:23:32.636Z,53.90
2019-05-12T15:25:54.697Z,54.00
2019-05-12T15:28:23.766Z,54.50
2019-05-12T15:30:54.158Z,54.50
2019-05-12T15:33:24.391Z,54.40
2019-05-12T15:35:54.718Z,54.40
2019-05-12T15:38:27.085Z,54.40
2019-05-12T15:40:57.225Z,54.80
2019-05-12T15:43:26.012Z,55.30
2019-05-12T15:45:59.350Z,55.50
2019-05-12T15:48:26.093Z,55.60
2019-05-12T15:50:59.365Z,55.70
2019-05-12T15:53:27.076Z,56.20
2019-05-12T15:55:56.573Z,56.40
2019-05-12T15:58:25.465Z,56.30
2019-05-12T16:00:57.829Z,56.00
2019-05-12T16:03:26.427Z,55.60
2019-05-12T16:05:55.527Z,55.30
2019-05-12T16:08:24.582Z,55.30
2019-05-12T16:10:56.133Z,56.00
2019-05-12T16:13:24.433Z,56.00
2019-05-12T16:15:57.629Z,55.80
2019-05-12T16:18:26.716Z,55.60
2019-05-12T16:20:58.960Z,55.40
2019-05-12T16:23:30.021Z,55.00
2019-05-12T16:25:55.799Z,54.60
2019-05-12T16:28:26.699Z,54.50
2019-05-12T16:31:02.400Z,54.50
2019-05-12T16:33:25.752Z,54.10
2019-05-12T16:35:54.683Z,54.50
2019-05-12T16:38:23.713Z,53.70
2019-05-12T16:40:53.916Z,53.90
2019-05-12T16:43:23.787Z,53.80
2019-05-12T16:45:53.845Z,53.80
2019-05-12T16:48:30.234Z,53.50
2019-05-12T16:50:53.294Z,54.00
2019-05-12T16:53:27.554Z,53.00
2019-05-12T16:55:53.252Z,53.20
2019-05-12T16:58:24.256Z,52.90
2019-05-12T17:00:53.481Z,53.40
2019-05-12T17:03:23.693Z,53.90
2019-05-12T17:05:55.856Z,54.90
2019-05-12T17:08:24.106Z,55.50
2019-05-12T17:11:01.313Z,55.80
2019-05-12T17:13:23.794Z,56.10
2019-05-12T17:15:55.272Z,56.60
2019-05-12T17:18:24.780Z,58.10
2019-05-12T17:20:54.544Z,58.80
2019-05-12T17:23:24.585Z,59.50
2019-05-12T17:25:53.814Z,59.90
2019-05-12T17:28:23.889Z,60.30
2019-05-12T17:30:54.480Z,60.70
2019-05-12T17:33:27.378Z,60.90
2019-05-12T17:35:54.018Z,61.40
2019-05-12T17:38:25.308Z,61.90
2019-05-12T17:40:58.770Z,62.40
2019-05-12T17:43:24.175Z,63.50
2019-05-12T17:45:56.783Z,64.20
2019-05-12T17:48:23.710Z,64.70
2019-05-12T17:50:53.976Z,65.00
2019-05-12T17:53:24.008Z,65.60
2019-05-12T17:55:55.712Z,66.80
2019-05-12T17:58:24.236Z,66.70
2019-05-12T18:00:53.505Z,67.00
2019-05-12T18:03:25.537Z,67.40
2019-05-12T18:05:53.391Z,67.80
2019-05-12T18:08:24.030Z,68.20
2019-05-12T18:10:54.489Z,68.60
2019-05-12T18:13:24.963Z,69.40
2019-05-12T18:15:53.930Z,69.50
2019-05-12T18:18:31.993Z,70.40
2019-05-12T18:20:55.582Z,70.80
2019-05-12T18:23:26.237Z,71.50
2019-05-12T18:25:54.527Z,72.20
2019-05-12T18:28:27.423Z,72.80
2019-05-12T18:30:54.807Z,73.40
2019-05-12T18:33:33.406Z,73.80
2019-05-12T18:35:54.512Z,74.40
2019-05-12T18:38:26.485Z,74.80
2019-05-12T18:40:54.182Z,75.10
2019-05-12T18:43:24.336Z,75.70
2019-05-12T18:45:57.165Z,75.70
2019-05-12T18:48:25.384Z,76.20
2019-05-12T18:50:54.363Z,76.60
2019-05-12T18:53:27.915Z,76.90
2019-05-12T18:55:54.169Z,77.40
2019-05-12T18:58:30.641Z,77.60
2019-05-12T19:00:53.991Z,77.80
2019-05-12T19:03:25.384Z,78.10
2019-05-12T19:05:54.287Z,78.30
2019-05-12T19:08:24.125Z,78.70
2019-05-12T19:10:52.969Z,78.90
2019-05-12T19:13:22.094Z,79.40
2019-05-12T19:15:52.745Z,79.80
2019-05-12T19:18:24.422Z,80.10
2019-05-12T19:20:54.168Z,81.30
2019-05-12T19:23:26.881Z,80.70
2019-05-12T19:25:54.186Z,81.20
2019-05-12T19:28:23.863Z,81.40
2019-05-12T19:30:54.659Z,82.10
2019-05-12T19:33:23.341Z,82.40
2019-05-12T19:35:59.738Z,82.60
2019-05-12T19:38:23.962Z,82.90
2019-05-12T19:40:58.697Z,83.40
2019-05-12T19:43:23.861Z,84.10
2019-05-12T19:46:02.735Z,83.90
2019-05-12T19:48:27.492Z,84.40
2019-05-12T19:50:56.958Z,84.60
2019-05-12T19:53:24.811Z,84.80
2019-05-12T19:55:53.937Z,85.10
2019-05-12T19:58:23.778Z,85.40
2019-05-12T20:00:54.278Z,85.50
2019-05-12T20:03:24.204Z,86.40
2019-05-12T20:05:53.887Z,87.10
2019-05-12T20:08:22.907Z,87.80
2019-05-12T20:10:53.945Z,88.60
2019-05-12T20:13:24.101Z,89.20
2019-05-12T20:15:52.871Z,89.70
2019-05-12T20:18:23.558Z,89.80
2019-05-12T20:20:54.334Z,90.10
2019-05-12T20:23:24.540Z,90.30
2019-05-12T20:25:53.689Z,90.80
2019-05-12T20:28:24.191Z,90.60
2019-05-12T20:31:01.061Z,90.70
2019-05-12T20:33:24.161Z,90.80
2019-05-12T20:35:54.739Z,90.80
2019-05-12T20:43:06.965Z,91.00
2019-05-12T20:45:18.294Z,90.50
2019-05-12T20:47:47.662Z,90.40
2019-05-12T20:50:16.937Z,90.60
2019-05-12T20:52:51.242Z,90.30
2019-05-12T20:55:16.264Z,89.90
2019-05-12T20:57:56.119Z,90.00
2019-05-12T21:00:16.604Z,89.20
2019-05-12T21:02:45.397Z,88.60
2019-05-12T21:05:19.233Z,87.60
2019-05-12T21:07:45.186Z,86.90
2019-05-12T21:10:14.921Z,85.50
2019-05-12T21:12:46.145Z,84.00
2019-05-12T21:15:20.351Z,82.40
2019-05-12T21:17:52.207Z,81.50
2019-05-12T21:20:16.903Z,80.70
2019-05-12T21:22:45.964Z,79.80
2019-05-12T21:25:14.959Z,79.10
2019-05-12T21:27:47.615Z,78.20
2019-05-12T21:30:15.328Z,77.80
2019-05-12T21:32:47.291Z,77.40
2019-05-12T21:35:21.741Z,77.20
2019-05-12T21:37:48.394Z,77.00
2019-05-12T21:40:21.799Z,76.90
2019-05-12T21:42:46.849Z,77.00
2019-05-12T21:45:20.148Z,77.10
2019-05-12T21:47:46.469Z,77.10
2019-05-12T21:50:15.525Z,77.10
2019-05-12T21:52:44.876Z,77.00
2019-05-12T21:55:21.634Z,76.90
2019-05-12T21:57:44.613Z,76.90
2019-05-12T22:00:28.456Z,77.00
2019-05-12T22:03:02.491Z,77.20
2019-05-12T22:05:47.121Z,77.40
2019-05-12T22:07:58.724Z,77.50
2019-05-12T22:10:30.810Z,77.60
2019-05-12T22:13:00.402Z,77.90
2019-05-12T22:15:29.507Z,78.50
2019-05-12T22:18:04.041Z,79.10
2019-05-12T22:20:35.605Z,79.40
2019-05-12T22:23:09.793Z,79.70
2019-05-12T22:25:35.199Z,79.80
2019-05-12T22:28:09.533Z,79.90
2019-05-12T22:30:35.265Z,80.60
2019-05-12T22:33:10.438Z,81.40
2019-05-12T22:35:34.771Z,82.30
2019-05-12T22:38:09.401Z,83.00
2019-05-12T22:40:34.177Z,83.40
2019-05-12T22:43:06.621Z,83.40
2019-05-12T22:45:44.372Z,83.50
2019-05-12T22:48:04.581Z,83.60
2019-05-12T22:50:35.368Z,83.70
2019-05-12T22:53:04.719Z,84.10
2019-05-12T22:55:36.161Z,84.10
2019-05-12T22:58:04.660Z,83.80
2019-05-12T23:00:34.424Z,83.80
2019-05-12T23:03:07.301Z,84.10
2019-05-12T23:05:33.996Z,83.80
2019-05-12T23:08:06.277Z,83.90
2019-05-12T23:10:33.322Z,83.90
2019-05-12T23:13:04.947Z,83.30
2019-05-12T23:15:33.515Z,83.20
2019-05-12T23:18:04.199Z,83.20
2019-05-12T23:20:35.540Z,83.30
2019-05-12T23:23:04.031Z,83.20
2019-05-12T23:25:35.136Z,83.60
2019-05-12T23:28:06.798Z,83.10
2019-05-12T23:30:34.506Z,83.10
2019-05-12T23:33:03.965Z,82.90
2019-05-12T23:35:34.907Z,82.80
2019-05-12T23:38:04.483Z,82.40
2019-05-12T23:40:34.538Z,82.00
2019-05-12T23:43:04.799Z,81.80
2019-05-12T23:45:34.131Z,81.30
2019-05-12T23:48:03.825Z,81.10
2019-05-12T23:50:32.997Z,80.80
2019-05-12T23:53:03.826Z,80.20
2019-05-12T23:55:35.038Z,80.00
2019-05-12T23:58:05.449Z,79.80
